Time;durP1;ratioP1;P1;durP2;ratioP2;P2;SDS_P1;SDS_P2;PMS_P1;PMS_P2;Temp;Humidity;BMP_temperature;BMP_pressure;BME280_temperature;BME280_humidity;BME280_pressure;Samples;Min_cycle;Max_cycle;Signal;HPM_P1;HPM_P2
2023/03/10 00:00:29;;;;;;;;;1.00;1.00;;;;;9.65;86.29;97106.50;5094643;28;8810;-57
2023/03/10 00:02:57;;;;;;;;;1.00;1.00;;;;;9.65;86.05;97095.88;5094536;28;8826;-57
2023/03/10 00:05:25;;;;;;;;;0.00;0.00;;;;;9.66;85.95;97083.44;5095146;28;8826;-60
2023/03/10 00:07:53;;;;;;;;;2.50;0.75;;;;;9.66;85.78;97075.47;5095652;28;9542;-57
2023/03/10 00:10:20;;;;;;;;;0.00;0.00;;;;;9.66;86.22;97076.25;5095346;28;8938;-59
2023/03/10 00:12:48;;;;;;;;;0.50;0.50;;;;;9.66;86.24;97075.47;5095822;28;8943;-57
2023/03/10 00:15:16;;;;;;;;;1.00;1.00;;;;;9.66;86.23;97070.94;5066420;28;8862;-58
2023/03/10 00:17:44;;;;;;;;;0.00;0.00;;;;;9.67;86.72;97056.69;5068375;28;8826;-60
2023/03/10 00:20:11;;;;;;;;;0.00;0.00;;;;;9.70;86.90;97055.47;5068445;28;8838;-57
2023/03/10 00:22:40;;;;;;;;;0.00;0.00;;;;;9.72;86.40;97045.50;5068222;28;8852;-58
2023/03/10 00:25:08;;;;;;;;;0.00;0.00;;;;;9.73;86.52;97045.28;5092863;28;8949;-59
2023/03/10 00:27:36;;;;;;;;;0.00;0.00;;;;;9.75;86.53;97040.63;5070975;28;8854;-57
2023/03/10 00:30:03;;;;;;;;;0.00;0.00;;;;;9.76;86.92;97039.63;5068140;28;8944;-58
2023/03/10 00:32:31;;;;;;;;;0.00;0.00;;;;;9.77;87.10;97035.94;5068668;28;9551;-57
2023/03/10 00:34:59;;;;;;;;;1.75;0.50;;;;;9.79;86.65;97017.97;5067886;28;8977;-58
2023/03/10 00:37:27;;;;;;;;;0.00;0.00;;;;;9.81;87.10;97020.44;5090153;28;8833;-57
2023/03/10 00:39:56;;;;;;;;;0.25;0.25;;;;;9.82;86.77;97017.59;5096116;28;8845;-57
2023/03/10 00:42:24;;;;;;;;;0.00;0.00;;;;;9.85;86.89;97025.19;5083506;28;8837;-59
2023/03/10 00:44:52;;;;;;;;;0.75;0.00;;;;;9.88;87.18;97014.16;5071840;28;8837;-59
2023/03/10 00:47:19;;;;;;;;;0.00;0.00;;;;;9.90;87.19;97003.34;5071078;28;9503;-59
2023/03/10 00:49:47;;;;;;;;;0.00;0.00;;;;;9.91;87.22;96994.38;5079125;28;8954;-59
2023/03/10 00:52:15;;;;;;;;;0.00;0.00;;;;;9.98;87.63;97005.88;5099199;28;8918;-57
2023/03/10 00:54:42;;;;;;;;;0.00;0.00;;;;;10.00;86.57;97010.00;5098656;28;8838;-58
2023/03/10 00:57:10;;;;;;;;;0.00;0.00;;;;;10.03;87.15;96980.41;5098453;28;8910;-57
2023/03/10 00:59:38;;;;;;;;;0.00;0.00;;;;;10.02;87.19;97002.66;5098384;28;8826;-57
2023/03/10 01:02:17;;;;;;;;;0.50;0.50;;;;;10.03;87.27;96996.34;5098426;28;8853;-57
2023/03/10 01:04:44;;;;;;;;;0.00;0.00;;;;;10.04;87.29;96992.72;5098050;28;8837;-57
2023/03/10 01:07:12;;;;;;;;;0.00;0.00;;;;;10.03;87.26;96976.94;5096952;28;8850;-56
2023/03/10 01:09:40;;;;;;;;;0.00;0.00;;;;;10.04;87.27;96974.09;5097027;28;8841;-57
2023/03/10 01:12:08;;;;;;;;;0.00;0.00;;;;;10.07;87.15;96975.53;5097038;28;8841;-57
2023/03/10 01:14:36;;;;;;;;;0.00;0.00;;;;;10.09;87.58;96966.34;5097295;28;8838;-57
2023/03/10 01:17:04;;;;;;;;;0.00;0.00;;;;;10.11;87.42;96982.91;5098235;28;8834;-56
2023/03/10 01:19:32;;;;;;;;;0.00;0.00;;;;;10.11;87.07;96977.59;5097780;28;8814;-57
2023/03/10 01:22:00;;;;;;;;;0.00;0.00;;;;;10.14;86.90;96990.53;5098302;28;8885;-56
2023/03/10 01:24:28;;;;;;;;;0.00;0.00;;;;;10.14;87.16;96955.97;5097413;28;8826;-57
2023/03/10 01:26:55;;;;;;;;;0.00;0.00;;;;;10.14;87.46;96963.94;5097946;28;8858;-58
2023/03/10 01:29:23;;;;;;;;;0.00;0.00;;;;;10.15;87.67;96965.59;5098224;28;8842;-59
2023/03/10 01:31:50;;;;;;;;;0.00;0.00;;;;;10.16;87.54;96963.75;5098026;28;8826;-59
2023/03/10 01:34:18;;;;;;;;;0.00;0.00;;;;;10.17;87.49;96974.19;5098261;28;8818;-59
2023/03/10 01:36:46;;;;;;;;;0.00;0.00;;;;;10.17;87.14;96968.06;5098070;28;8842;-58
2023/03/10 01:39:14;;;;;;;;;0.00;0.00;;;;;10.17;87.63;96966.22;5098237;28;8837;-59
2023/03/10 01:41:41;;;;;;;;;0.00;0.00;;;;;10.17;86.97;96954.78;5097546;28;8845;-59
2023/03/10 01:44:09;;;;;;;;;0.00;0.00;;;;;10.15;87.27;96957.59;5098203;28;8829;-59
2023/03/10 01:46:37;;;;;;;;;0.00;0.00;;;;;10.14;86.94;96974.59;5098435;28;8834;-58
2023/03/10 01:49:05;;;;;;;;;0.00;0.00;;;;;10.15;86.77;96994.00;5097966;28;8868;-59
2023/03/10 01:51:33;;;;;;;;;0.00;0.00;;;;;10.14;87.22;97006.50;5097608;28;8883;-59
2023/03/10 01:54:00;;;;;;;;;0.00;0.00;;;;;10.14;87.04;97008.31;5097827;28;8814;-59
2023/03/10 01:56:28;;;;;;;;;0.00;0.00;;;;;10.13;86.97;97002.19;5098232;28;8822;-59
2023/03/10 01:58:56;;;;;;;;;0.00;0.00;;;;;10.14;86.69;97001.16;5080241;28;8846;-58
2023/03/10 02:01:24;;;;;;;;;0.00;0.00;;;;;10.14;86.88;96997.69;5071056;28;8842;-58
2023/03/10 02:03:51;;;;;;;;;0.00;0.00;;;;;10.13;86.57;96994.22;5069872;28;8838;-58
2023/03/10 02:06:19;;;;;;;;;0.00;0.00;;;;;10.12;86.62;97007.69;5069741;28;9129;-58
2023/03/10 02:08:47;;;;;;;;;0.00;0.00;;;;;10.08;87.22;96999.28;5088426;28;8826;-59
2023/03/10 02:11:14;;;;;;;;;0.00;0.00;;;;;10.06;86.78;97000.47;5081439;28;8842;-59
2023/03/10 02:13:42;;;;;;;;;0.00;0.00;;;;;10.02;86.48;96997.34;5070696;28;8853;-58
2023/03/10 02:16:10;;;;;;;;;0.00;0.00;;;;;10.00;87.21;97006.50;5070300;28;9535;-58
2023/03/10 02:18:38;;;;;;;;;0.00;0.00;;;;;9.97;87.14;97005.09;5070181;28;9176;-58
2023/03/10 02:21:06;;;;;;;;;0.00;0.00;;;;;9.95;86.79;97011.59;5081922;28;8852;-58
2023/03/10 02:23:33;;;;;;;;;0.00;0.00;;;;;9.92;87.13;97007.47;5097092;28;8837;-59
2023/03/10 02:26:01;;;;;;;;;0.00;0.00;;;;;9.90;87.23;97001.53;5097127;28;8830;-58
2023/03/10 02:28:29;;;;;;;;;0.00;0.00;;;;;9.88;86.66;97000.88;5069497;28;8872;-58
2023/03/10 02:30:57;;;;;;;;;0.00;0.00;;;;;9.87;86.95;97001.09;5069787;28;9766;-59
2023/03/10 02:33:24;;;;;;;;;0.00;0.00;;;;;9.87;87.05;96999.22;5069698;28;8846;-58
2023/03/10 02:35:52;;;;;;;;;0.00;0.00;;;;;9.87;87.00;96995.78;5087665;28;8833;-59
2023/03/10 02:38:20;;;;;;;;;0.25;0.00;;;;;9.87;86.83;96990.47;5096778;28;8832;-59
2023/03/10 02:40:48;;;;;;;;;0.00;0.00;;;;;9.87;87.02;96991.25;5085735;28;9522;-59
2023/03/10 02:43:15;;;;;;;;;0.50;0.50;;;;;9.87;87.38;96991.25;5069332;28;9290;-58
2023/03/10 02:45:43;;;;;;;;;0.25;0.00;;;;;9.88;87.20;96997.41;5070156;28;8908;-59
2023/03/10 02:48:11;;;;;;;;;0.00;0.00;;;;;9.88;86.68;96986.78;5069425;28;8838;-58
2023/03/10 02:50:39;;;;;;;;;0.00;0.00;;;;;9.86;86.81;96986.97;5069511;28;8822;-59
2023/03/10 02:53:06;;;;;;;;;0.00;0.00;;;;;9.87;86.94;96999.22;5077192;28;8833;-59
2023/03/10 02:55:34;;;;;;;;;1.00;1.00;;;;;9.86;87.10;96996.78;5096527;28;8826;-59
2023/03/10 02:58:02;;;;;;;;;0.00;0.00;;;;;9.85;87.65;96995.94;5069307;28;8888;-58
2023/03/10 03:00:30;;;;;;;;;0.00;0.00;;;;;9.83;87.60;96992.66;5069616;28;9955;-59
2023/03/10 03:02:57;;;;;;;;;0.00;0.00;;;;;9.82;87.72;96996.34;5068691;28;8838;-58
2023/03/10 03:05:25;;;;;;;;;0.00;0.00;;;;;9.82;87.58;96993.69;5069321;28;8877;-58
2023/03/10 03:07:53;;;;;;;;;0.00;0.00;;;;;9.81;87.51;96999.19;5093734;28;8911;-59
2023/03/10 03:10:21;;;;;;;;;0.00;0.00;;;;;9.83;87.26;96997.16;5096426;28;8903;-59
2023/03/10 03:12:50;;;;;;;;;0.00;0.00;;;;;9.83;87.63;97008.63;5077259;28;8923;-57
2023/03/10 03:15:17;;;;;;;;;0.00;0.00;;;;;9.83;87.52;97000.66;5069041;28;8830;-58
2023/03/10 03:17:45;;;;;;;;;0.00;0.00;;;;;9.83;87.47;97005.97;5079847;28;8835;-59
2023/03/10 03:20:13;;;;;;;;;0.00;0.00;;;;;9.84;87.35;96993.47;5096276;28;8854;-59
2023/03/10 03:22:41;;;;;;;;;0.00;0.00;;;;;9.85;87.52;96995.13;5096316;28;8842;-58
2023/03/10 03:25:09;;;;;;;;;0.00;0.00;;;;;9.85;86.95;96998.59;5096261;28;8837;-59
2023/03/10 03:27:37;;;;;;;;;0.00;0.00;;;;;9.86;87.57;96999.44;5096029;28;8972;-59
2023/03/10 03:30:04;;;;;;;;;0.00;0.00;;;;;9.86;87.07;96991.47;5095826;28;8850;-59
2023/03/10 03:32:32;;;;;;;;;0.00;0.00;;;;;9.85;87.26;96987.97;5096187;28;8841;-59
2023/03/10 03:35:00;;;;;;;;;0.00;0.00;;;;;9.84;87.44;96998.78;5096027;28;8810;-58
2023/03/10 03:37:28;;;;;;;;;0.00;0.00;;;;;9.85;87.17;97003.94;5095849;28;8818;-59
2023/03/10 03:39:56;;;;;;;;;0.00;0.00;;;;;9.84;87.08;96998.78;5095887;28;8830;-59
2023/03/10 03:42:23;;;;;;;;;0.00;0.00;;;;;9.82;87.37;97004.31;5095461;28;8992;-58
2023/03/10 03:44:51;;;;;;;;;0.00;0.00;;;;;9.82;87.44;97006.13;5096139;28;8826;-58
2023/03/10 03:47:18;;;;;;;;;0.00;0.00;;;;;9.80;87.25;96998.34;5095899;28;8822;-58
2023/03/10 03:49:46;;;;;;;;;0.00;0.00;;;;;9.77;87.97;96993.41;5095984;28;8849;-58
2023/03/10 03:52:14;;;;;;;;;0.00;0.00;;;;;9.76;87.34;97002.41;5096219;28;8826;-59
2023/03/10 03:54:43;;;;;;;;;0.00;0.00;;;;;9.76;87.50;97007.72;5096068;28;8813;-58
2023/03/10 03:57:10;;;;;;;;;0.00;0.00;;;;;9.78;87.23;97010.19;5095736;28;8814;-57
2023/03/10 03:59:38;;;;;;;;;0.00;0.00;;;;;9.79;87.61;97012.66;5095961;28;9488;-58
2023/03/10 04:02:05;;;;;;;;;0.25;0.00;;;;;9.81;87.42;96999.19;5095292;28;8906;-59
2023/03/10 04:04:33;;;;;;;;;0.00;0.00;;;;;9.82;87.32;96996.34;5099364;28;8834;-58
2023/03/10 04:07:01;;;;;;;;;0.00;0.00;;;;;9.85;87.55;96993.28;5095501;28;8846;-58
2023/03/10 04:09:29;;;;;;;;;0.00;0.00;;;;;9.85;87.39;96998.59;5095436;28;8830;-59
2023/03/10 04:11:56;;;;;;;;;0.00;0.00;;;;;9.83;87.10;96997.97;5094560;28;8834;-58
2023/03/10 04:14:24;;;;;;;;;0.00;0.00;;;;;9.81;87.40;97000.00;5096684;28;8834;-59
2023/03/10 04:16:52;;;;;;;;;1.00;1.00;;;;;9.80;87.71;97003.66;5099430;28;8826;-58
2023/03/10 04:19:20;;;;;;;;;0.00;0.00;;;;;9.79;87.16;96990.59;5098626;28;8825;-58
2023/03/10 04:21:48;;;;;;;;;0.00;0.00;;;;;9.75;87.67;97006.09;5098614;28;8886;-58
2023/03/10 04:24:15;;;;;;;;;0.00;0.00;;;;;9.73;87.69;97002.75;5098946;28;8830;-58
2023/03/10 04:26:43;;;;;;;;;0.00;0.00;;;;;9.72;87.22;97001.13;5098117;28;8838;-58
2023/03/10 04:29:11;;;;;;;;;0.00;0.00;;;;;9.70;87.29;96984.56;5097658;28;8865;-58
2023/03/10 04:31:38;;;;;;;;;0.25;0.25;;;;;9.71;88.08;96980.09;5097258;28;8911;-59
2023/03/10 04:34:06;;;;;;;;;0.00;0.00;;;;;9.70;87.62;96981.91;5097671;28;8840;-59
2023/03/10 04:36:34;;;;;;;;;0.75;0.75;;;;;9.69;87.86;96980.25;5098116;28;8842;-58
2023/03/10 04:39:03;;;;;;;;;0.00;0.00;;;;;9.69;87.33;96980.25;5098448;28;9485;-58
2023/03/10 04:41:31;;;;;;;;;1.00;0.00;;;;;9.70;87.85;96981.91;5098528;28;8842;-59
2023/03/10 04:43:59;;;;;;;;;0.00;0.00;;;;;9.67;87.18;96979.63;5098626;28;8822;-59
2023/03/10 04:46:26;;;;;;;;;0.50;0.25;;;;;9.65;87.03;96984.28;5098944;28;9516;-58
2023/03/10 04:48:55;;;;;;;;;0.00;0.00;;;;;9.64;87.35;96985.31;5097949;28;8853;-59
2023/03/10 04:51:22;;;;;;;;;0.75;0.75;;;;;9.64;87.39;96987.97;5097909;28;8841;-59
2023/03/10 04:53:50;;;;;;;;;1.00;1.00;;;;;9.64;87.80;96987.97;5098046;28;8830;-58
2023/03/10 04:56:18;;;;;;;;;0.00;0.00;;;;;9.62;87.30;96986.50;5097343;28;8826;-58
2023/03/10 04:58:45;;;;;;;;;0.50;0.50;;;;;9.64;87.70;96982.66;5096621;28;8930;-57
2023/03/10 05:01:13;;;;;;;;;0.50;0.50;;;;;9.66;87.29;96980.63;5096582;28;8857;-58
2023/03/10 05:03:41;;;;;;;;;0.75;0.00;;;;;9.69;87.56;96974.94;5096377;28;8836;-59
2023/03/10 05:06:09;;;;;;;;;1.00;1.00;;;;;9.73;87.45;96978.84;5097679;28;8853;-59
2023/03/10 05:08:36;;;;;;;;;0.00;0.00;;;;;9.73;86.85;96975.41;5097808;28;8849;-59
2023/03/10 05:11:04;;;;;;;;;1.00;1.00;;;;;9.71;87.15;96969.44;5098565;28;9596;-59
2023/03/10 05:13:32;;;;;;;;;0.00;0.00;;;;;9.67;87.41;96960.19;5097946;28;8834;-59
2023/03/10 05:15:59;;;;;;;;;0.00;0.00;;;;;9.66;87.39;96964.69;5098313;28;8822;-59
2023/03/10 05:18:27;;;;;;;;;2.50;2.00;;;;;9.67;87.60;96969.00;5098640;28;8830;-59
2023/03/10 05:20:55;;;;;;;;;0.00;0.00;;;;;9.68;87.08;96960.03;5097776;28;8826;-59
2023/03/10 05:23:23;;;;;;;;;0.50;0.50;;;;;9.69;86.81;96958.16;5098171;28;8810;-59
2023/03/10 05:25:51;;;;;;;;;1.00;1.00;;;;;9.68;87.16;96965.34;5097241;28;8814;-59
2023/03/10 05:28:18;;;;;;;;;0.00;0.00;;;;;9.68;87.15;96969.81;5097478;28;8857;-59
2023/03/10 05:30:46;;;;;;;;;1.00;0.75;;;;;9.69;87.16;96966.97;5098139;28;8834;-58
2023/03/10 05:33:14;;;;;;;;;0.50;0.50;;;;;9.72;86.80;96974.56;5097535;28;8862;-59
2023/03/10 05:35:41;;;;;;;;;0.00;0.00;;;;;9.74;87.03;96966.41;5097625;28;8849;-59
2023/03/10 05:38:09;;;;;;;;;1.00;1.00;;;;;9.75;87.07;96968.03;5097530;28;8830;-58
2023/03/10 05:40:37;;;;;;;;;0.25;0.00;;;;;9.78;86.92;96967.69;5096861;28;8814;-59
2023/03/10 05:43:05;;;;;;;;;0.00;0.00;;;;;9.79;86.69;96972.78;5098200;28;9495;-59
2023/03/10 05:45:33;;;;;;;;;1.00;1.00;;;;;9.83;86.47;96970.56;5097657;28;8841;-59
2023/03/10 05:48:01;;;;;;;;;1.00;1.00;;;;;9.85;86.85;96964.06;5097586;28;8858;-59
2023/03/10 05:50:29;;;;;;;;;0.00;0.00;;;;;9.87;86.93;96963.88;5097624;28;9484;-58
2023/03/10 05:52:56;;;;;;;;;0.00;0.00;;;;;9.87;86.68;96958.56;5097585;28;8845;-59
2023/03/10 05:55:27;;;;;;;;;0.00;0.00;;;;;9.87;86.45;96959.38;5097964;28;8834;-59
2023/03/10 05:57:55;;;;;;;;;0.00;0.00;;;;;9.89;86.26;96962.69;5096220;28;8865;-59
2023/03/10 06:00:22;;;;;;;;;0.00;0.00;;;;;9.90;86.64;96966.97;5096176;28;8845;-59
2023/03/10 06:02:50;;;;;;;;;0.00;0.00;;;;;9.90;86.01;96961.66;5096617;28;8826;-59
2023/03/10 06:05:18;;;;;;;;;0.00;0.00;;;;;9.91;86.25;96970.44;5095902;28;8842;-59
2023/03/10 06:07:46;;;;;;;;;0.00;0.00;;;;;9.87;86.25;96966.53;5096568;28;8838;-59
2023/03/10 06:10:14;;;;;;;;;1.00;1.00;;;;;9.79;86.62;96964.00;5096166;28;8865;-58
2023/03/10 06:12:42;;;;;;;;;0.00;0.00;;;;;9.73;86.66;96959.44;5075431;28;8838;-58
2023/03/10 06:15:09;;;;;;;;;1.00;0.00;;;;;9.67;86.85;96954.88;5069277;28;9220;-59
2023/03/10 06:17:37;;;;;;;;;0.50;0.50;;;;;9.61;87.11;96952.97;5069498;28;8834;-58
2023/03/10 06:20:05;;;;;;;;;0.00;0.00;;;;;9.58;87.43;96966.66;5069329;28;8846;-58
2023/03/10 06:22:33;;;;;;;;;0.50;0.50;;;;;9.53;87.07;96959.25;5076484;28;8869;-59
2023/03/10 06:25:01;;;;;;;;;0.00;0.00;;;;;9.48;87.57;96947.56;5095937;28;8833;-59
2023/03/10 06:27:29;;;;;;;;;0.25;0.00;;;;;9.43;87.44;96955.25;5076850;28;8838;-58
2023/03/10 06:29:57;;;;;;;;;1.00;0.50;;;;;9.39;87.65;96953.97;5068289;28;8846;-58
2023/03/10 06:32:25;;;;;;;;;4.00;1.00;;;;;9.36;87.04;96954.38;5079441;28;9039;-59
2023/03/10 06:34:53;;;;;;;;;0.75;0.75;;;;;9.34;87.39;96957.19;5094391;28;8826;-58
2023/03/10 06:37:20;;;;;;;;;1.50;1.50;;;;;9.31;87.88;96962.06;5092765;28;8822;-58
2023/03/10 06:39:48;;;;;;;;;0.25;0.25;;;;;9.28;87.57;96960.59;5093875;28;8822;-58
2023/03/10 06:42:16;;;;;;;;;0.50;0.50;;;;;9.27;87.86;96964.25;5069638;28;8845;-57
2023/03/10 06:44:44;;;;;;;;;0.00;0.00;;;;;9.29;88.04;96962.25;5067376;28;8849;-59
2023/03/10 06:47:15;;;;;;;;;0.50;0.50;;;;;9.33;87.59;96960.06;5080946;28;9508;-59
2023/03/10 06:49:43;;;;;;;;;0.25;0.25;;;;;9.36;87.56;96963.16;5092716;28;8828;-58
2023/03/10 06:52:11;;;;;;;;;1.00;1.00;;;;;9.42;87.50;96967.69;5092991;28;8884;-59
2023/03/10 06:54:39;;;;;;;;;0.50;0.00;;;;;9.46;87.32;96965.50;5092726;28;8827;-59
2023/03/10 06:57:07;;;;;;;;;0.00;0.00;;;;;9.51;87.37;96963.09;5092623;28;8831;-58
2023/03/10 06:59:40;;;;;;;;;2.50;2.00;;;;;9.60;87.36;96964.63;5125580;27;13463;-59
2023/03/10 07:02:08;;;;;;;;;2.50;1.00;;;;;9.71;87.26;96970.25;5108010;28;8839;-59
2023/03/10 07:04:35;;;;;;;;;0.00;0.00;;;;;9.84;86.46;96966.91;5108482;28;8840;-60
2023/03/10 07:07:03;;;;;;;;;1.25;1.25;;;;;9.92;85.77;96972.91;5108472;28;8843;-59
2023/03/10 07:09:32;;;;;;;;;0.00;0.00;;;;;9.95;86.11;96972.53;5108399;28;9646;-59
2023/03/10 07:11:59;;;;;;;;;0.00;0.00;;;;;9.99;85.93;96971.16;5107133;28;8855;-58
2023/03/10 07:14:27;;;;;;;;;0.00;0.00;;;;;10.04;85.90;96966.13;5108831;28;8836;-59
2023/03/10 07:16:55;;;;;;;;;0.00;0.00;;;;;10.09;85.73;96976.97;5108605;28;8832;-59
2023/03/10 07:19:23;;;;;;;;;0.00;0.00;;;;;10.13;85.46;96974.75;5108739;28;9606;-60
2023/03/10 07:21:51;;;;;;;;;0.75;0.00;;;;;10.12;85.56;96975.78;5108523;28;8986;-59
2023/03/10 07:24:20;;;;;;;;;0.00;0.00;;;;;10.07;85.95;96973.69;5108927;28;8865;-60
2023/03/10 07:26:48;;;;;;;;;0.75;0.75;;;;;10.07;86.16;96983.50;5109532;28;8812;-59
2023/03/10 07:29:16;;;;;;;;;0.00;0.00;;;;;10.10;85.91;96975.97;5108462;28;8836;-59
2023/03/10 07:31:44;;;;;;;;;1.00;0.00;;;;;10.10;85.86;96978.63;5108238;28;9115;-60
2023/03/10 07:34:12;;;;;;;;;2.25;1.00;;;;;10.10;85.54;96981.28;5106921;28;8870;-60
2023/03/10 07:36:40;;;;;;;;;0.00;0.00;;;;;10.12;85.59;96983.75;5107589;28;8836;-59
2023/03/10 07:39:08;;;;;;;;;0.00;0.00;;;;;10.16;85.96;96993.81;5108015;28;8843;-59
2023/03/10 07:41:36;;;;;;;;;0.50;0.50;;;;;10.22;85.04;96987.75;5108052;28;8836;-59
2023/03/10 07:44:03;;;;;;;;;1.00;1.00;;;;;10.30;85.06;96998.22;5108302;28;8859;-59
2023/03/10 07:46:32;;;;;;;;;0.25;0.00;;;;;10.40;85.04;97001.38;5108436;28;8836;-60
2023/03/10 07:49:03;;;;;;;;;1.00;1.00;;;;;10.50;84.53;96993.91;5108337;28;8824;-59
2023/03/10 07:51:30;;;;;;;;;0.50;0.50;;;;;10.55;84.81;96996.78;5108992;28;8852;-59
2023/03/10 07:53:58;;;;;;;;;1.00;1.00;;;;;10.61;84.68;96995.19;5107529;28;8836;-59
2023/03/10 07:56:26;;;;;;;;;0.50;0.50;;;;;10.65;84.24;97005.25;5108602;28;8850;-59
2023/03/10 07:58:54;;;;;;;;;0.00;0.00;;;;;10.65;84.35;97009.75;5108508;28;9543;-59
2023/03/10 08:01:22;;;;;;;;;1.00;0.00;;;;;10.62;84.66;97004.81;5108711;28;8829;-60
2023/03/10 08:03:50;;;;;;;;;0.00;0.00;;;;;10.57;84.67;97008.06;5108731;28;8853;-59
2023/03/10 08:06:18;;;;;;;;;1.00;0.00;;;;;10.56;84.37;97009.06;5108236;28;8829;-59
2023/03/10 08:08:45;;;;;;;;;1.00;1.00;;;;;10.60;85.12;97006.84;5109203;28;8818;-60
2023/03/10 08:11:13;;;;;;;;;1.00;0.00;;;;;10.65;84.69;97009.75;5093815;28;8850;-59
2023/03/10 08:13:41;;;;;;;;;0.50;0.00;;;;;10.72;83.86;97011.44;5095537;28;8837;-60
2023/03/10 08:16:09;;;;;;;;;0.25;0.25;;;;;10.81;84.27;97020.09;5094748;28;8858;-59
2023/03/10 08:18:37;;;;;;;;;1.00;1.00;;;;;10.88;83.60;97021.78;5094274;28;8826;-60
2023/03/10 08:21:05;;;;;;;;;0.25;0.25;;;;;10.91;83.81;97015.25;5094426;28;8829;-59
2023/03/10 08:23:33;;;;;;;;;0.25;0.25;;;;;10.93;84.22;97008.69;5093999;28;8853;-60
2023/03/10 08:26:02;;;;;;;;;0.00;0.00;;;;;10.95;83.74;97012.00;5093513;28;8847;-59
2023/03/10 08:28:31;;;;;;;;;1.00;0.25;;;;;10.93;84.18;97007.88;5094222;28;8854;-59
2023/03/10 08:30:59;;;;;;;;;0.75;0.75;;;;;10.93;83.61;97015.88;5093990;28;8842;-60
2023/03/10 08:33:31;;;;;;;;;1.00;1.00;;;;;11.01;83.69;97011.19;5092547;28;8852;-58
2023/03/10 08:35:59;;;;;;;;;1.00;1.00;;;;;11.12;83.52;97005.34;5093501;28;9234;-59
2023/03/10 08:38:27;;;;;;;;;0.00;0.00;;;;;11.27;83.11;97016.69;5094598;28;8898;-60
2023/03/10 08:40:55;;;;;;;;;1.00;1.00;;;;;11.35;83.37;97016.50;5094566;28;8834;-59
2023/03/10 08:43:23;;;;;;;;;0.00;0.00;;;;;11.37;82.98;97022.44;5094099;28;8846;-60
2023/03/10 08:45:51;;;;;;;;;0.25;0.25;;;;;11.35;83.01;97019.16;5095024;28;8934;-59
2023/03/10 08:48:20;;;;;;;;;1.50;1.00;;;;;11.32;82.64;97030.22;5095415;28;8965;-59
2023/03/10 08:50:48;;;;;;;;;0.75;0.25;;;;;11.32;83.07;97016.91;5093909;28;8822;-59
2023/03/10 08:53:16;;;;;;;;;1.00;0.00;;;;;11.31;83.08;97031.22;5095279;28;8845;-60
2023/03/10 08:55:43;;;;;;;;;0.50;0.50;;;;;11.24;83.05;97033.03;5093526;28;8857;-60
2023/03/10 08:58:11;;;;;;;;;1.00;1.00;;;;;11.11;83.14;97030.31;5091457;28;9227;-59
2023/03/10 09:00:41;;;;;;;;;0.00;0.00;;;;;10.96;83.40;97023.47;5090766;28;8842;-60
2023/03/10 09:03:11;;;;;;;;;0.00;0.00;;;;;10.88;84.10;97018.28;5091102;28;8918;-60
2023/03/10 09:05:41;;;;;;;;;1.00;1.00;;;;;10.87;84.01;97019.31;5090675;28;8942;-60
2023/03/10 09:08:09;;;;;;;;;3.50;1.50;;;;;10.86;84.29;97023.81;5092148;28;9524;-59
2023/03/10 09:10:37;;;;;;;;;0.00;0.00;;;;;10.92;84.62;97017.69;5091566;28;8826;-59
2023/03/10 09:13:05;;;;;;;;;1.00;1.00;;;;;10.98;83.86;97022.25;5091838;28;8972;-60
2023/03/10 09:15:41;;;;;;;;;0.00;0.00;;;;;11.01;83.83;97023.72;5091869;28;9974;-58
2023/03/10 09:18:09;;;;;;;;;0.25;0.25;;;;;11.00;83.97;97022.88;5091389;28;8918;-60
2023/03/10 09:20:36;;;;;;;;;0.00;0.00;;;;;10.99;84.01;97031.88;5092247;28;8834;-58
2023/03/10 09:23:04;;;;;;;;;0.50;0.50;;;;;10.93;84.50;97030.00;5091406;28;9570;-59
2023/03/10 09:25:32;;;;;;;;;1.00;1.00;;;;;10.90;84.18;97030.41;5092722;28;8877;-59
2023/03/10 09:28:00;;;;;;;;;0.00;0.00;;;;;10.88;83.78;97031.59;5093432;28;8837;-60
2023/03/10 09:30:29;;;;;;;;;0.25;0.25;;;;;10.87;84.47;97036.13;5093293;28;8841;-60
2023/03/10 09:32:57;;;;;;;;;1.00;0.50;;;;;10.89;84.12;97036.75;5092593;28;8841;-59
2023/03/10 09:35:25;;;;;;;;;3.00;1.00;;;;;10.88;84.11;97040.44;5091621;28;8826;-59
2023/03/10 09:37:53;;;;;;;;;2.00;2.00;;;;;10.86;84.21;97038.97;5092478;28;8871;-60
2023/03/10 09:40:21;;;;;;;;;0.00;0.00;;;;;10.81;84.17;97033.41;5090925;28;8968;-60
2023/03/10 09:42:49;;;;;;;;;0.00;0.00;;;;;10.76;84.56;97035.84;5091031;28;8960;-60
2023/03/10 09:45:17;;;;;;;;;0.50;0.50;;;;;10.71;84.80;97040.91;5091021;28;8818;-60
2023/03/10 09:47:45;;;;;;;;;3.00;1.00;;;;;10.64;84.54;97042.69;5091688;28;8834;-59
2023/03/10 09:50:13;;;;;;;;;0.00;0.00;;;;;10.56;85.02;97043.66;5090651;28;8818;-60
2023/03/10 09:52:41;;;;;;;;;0.00;0.00;;;;;10.49;84.74;97047.28;5091208;28;8822;-59
2023/03/10 09:55:09;;;;;;;;;2.00;0.75;;;;;10.46;85.55;97042.38;5091428;28;9595;-58
2023/03/10 09:57:39;;;;;;;;;0.25;0.25;;;;;10.45;85.50;97044.19;5091834;28;8926;-60
2023/03/10 10:00:07;;;;;;;;;3.00;2.50;;;;;10.49;85.21;97050.78;5092060;28;8887;-60
2023/03/10 10:02:36;;;;;;;;;1.00;1.00;;;;;10.57;85.20;97047.16;5092610;28;8844;-59
2023/03/10 10:05:04;;;;;;;;;1.00;1.00;;;;;10.59;84.86;97045.94;5092442;28;8838;-59
2023/03/10 10:07:32;;;;;;;;;0.25;0.25;;;;;10.64;85.45;97050.69;5092766;28;8826;-58
2023/03/10 10:10:00;;;;;;;;;0.00;0.00;;;;;10.67;85.17;97060.94;5093547;28;8830;-59
2023/03/10 10:12:28;;;;;;;;;3.50;3.00;;;;;10.70;84.78;97060.56;5093206;28;8956;-59
2023/03/10 10:14:56;;;;;;;;;1.00;1.00;;;;;10.78;84.79;97057.75;5093196;28;8838;-59
2023/03/10 10:17:24;;;;;;;;;1.00;1.00;;;;;10.91;84.40;97053.34;5092151;28;8963;-60
2023/03/10 10:19:52;;;;;;;;;1.00;1.00;;;;;11.07;84.12;97047.69;5092379;28;8857;-60
2023/03/10 10:22:20;;;;;;;;;1.50;1.00;;;;;11.20;84.08;97047.78;5093144;28;8834;-59
2023/03/10 10:24:48;;;;;;;;;1.00;1.00;;;;;11.27;84.22;97048.63;5092397;28;8830;-59
2023/03/10 10:27:18;;;;;;;;;3.25;2.50;;;;;11.32;84.15;97054.22;5091560;28;8876;-59
2023/03/10 10:29:49;;;;;;;;;1.00;1.00;;;;;11.34;83.52;97059.31;5092282;28;8822;-59
2023/03/10 10:32:17;;;;;;;;;0.50;0.50;;;;;11.37;83.85;97054.41;5092733;28;8849;-59
2023/03/10 10:34:45;;;;;;;;;1.00;1.00;;;;;11.43;83.92;97053.63;5091176;28;8926;-60
2023/03/10 10:37:13;;;;;;;;;1.50;1.50;;;;;11.58;83.21;97057.00;5091136;28;8830;-58
2023/03/10 10:39:42;;;;;;;;;1.50;1.50;;;;;11.86;82.51;97048.91;5090253;28;8913;-58
2023/03/10 10:42:10;;;;;;;;;1.00;1.00;;;;;12.04;81.92;97057.97;5091109;28;8842;-58
2023/03/10 10:44:38;;;;;;;;;2.50;2.50;;;;;12.23;81.98;97050.00;5090678;28;8960;-60
2023/03/10 10:47:06;;;;;;;;;2.75;2.00;;;;;12.39;81.37;97043.47;5090997;28;8850;-59
2023/03/10 10:49:34;;;;;;;;;3.25;1.00;;;;;12.55;81.44;97045.75;5090836;28;9167;-59
2023/03/10 10:52:03;;;;;;;;;0.50;0.00;;;;;12.67;80.06;97044.06;5091117;28;8826;-59
2023/03/10 10:54:31;;;;;;;;;2.00;1.00;;;;;12.85;80.16;97034.41;5091128;28;8853;-60
2023/03/10 10:56:59;;;;;;;;;1.50;1.50;;;;;12.95;80.35;97028.69;5091048;28;8826;-60
2023/03/10 10:59:27;;;;;;;;;1.00;1.00;;;;;13.04;79.63;97032.78;5092463;28;8865;-60
2023/03/10 11:01:55;;;;;;;;;0.50;0.50;;;;;13.13;80.12;97036.88;5091702;28;8830;-59
2023/03/10 11:04:22;;;;;;;;;1.00;1.00;;;;;13.18;80.11;97034.38;5091479;28;8972;-60
2023/03/10 11:06:51;;;;;;;;;1.00;1.00;;;;;13.19;80.21;97036.03;5090693;28;9546;-58
2023/03/10 11:09:19;;;;;;;;;5.50;3.75;;;;;13.17;80.18;97030.91;5091333;28;8841;-58
2023/03/10 11:11:46;;;;;;;;;3.00;3.00;;;;;13.09;80.19;97035.66;5091432;28;8841;-59
2023/03/10 11:14:15;;;;;;;;;3.75;3.00;;;;;12.98;80.17;97026.41;5090756;28;9280;-59
2023/03/10 11:16:43;;;;;;;;;2.00;2.00;;;;;12.95;80.47;97036.69;5091045;28;8838;-58
2023/03/10 11:19:11;;;;;;;;;1.00;1.00;;;;;13.12;79.89;97029.88;5091429;28;8834;-60
2023/03/10 11:21:39;;;;;;;;;3.75;3.75;;;;;13.19;80.38;97028.84;5091843;28;8887;-58
2023/03/10 11:24:07;;;;;;;;;1.00;0.25;;;;;13.20;79.60;97022.47;5092280;28;8838;-59
2023/03/10 11:26:35;;;;;;;;;4.00;3.50;;;;;13.41;79.50;97027.53;5092201;28;8859;-60
2023/03/10 11:29:05;;;;;;;;;2.50;1.50;;;;;14.27;78.45;97024.22;5091580;28;8845;-59
2023/03/10 11:31:34;;;;;;;;;3.75;3.00;;;;;15.49;74.84;97009.91;5090180;28;8822;-60
2023/03/10 11:34:02;;;;;;;;;1.50;1.50;;;;;16.64;72.27;97010.41;5089259;28;8837;-58
2023/03/10 11:36:31;;;;;;;;;0.80;0.00;;;;;16.63;71.52;96998.81;5088018;28;8854;-60
2023/03/10 11:38:59;;;;;;;;;3.20;3.00;;;;;16.10;73.17;96999.00;5088475;28;8934;-58
2023/03/10 11:41:27;;;;;;;;;3.80;3.40;;;;;15.63;74.16;96997.97;5089115;28;8846;-59
2023/03/10 11:43:55;;;;;;;;;2.20;1.00;;;;;15.17;75.46;96999.56;5089068;28;8834;-60
2023/03/10 11:46:23;;;;;;;;;1.00;1.00;;;;;14.88;76.22;96995.69;5093542;28;8862;-61
2023/03/10 11:48:51;;;;;;;;;1.00;1.00;;;;;14.70;77.17;96993.00;5093588;28;8842;-60